Time;durP1;ratioP1;P1;durP2;ratioP2;P2;SDS_P1;SDS_P2;PMS_P1;PMS_P2;Temp;Humidity;BMP_temperature;BMP_pressure;BME280_temperature;BME280_humidity;BME280_pressure;Samples;Min_cycle;Max_cycle;Signal;HPM_P1;HPM_P2
2021/08/30 00:01:35;;;;;;;6.15;2.92;;;;;;;;;;7392494;19;20011;-57
2021/08/30 00:04:03;;;;;;;6.57;3.17;;;;;;;;;;7394476;19;20576;-56
2021/08/30 00:06:31;;;;;;;8.68;4.05;;;;;;;;;;7391970;19;20048;-57
2021/08/30 00:08:58;;;;;;;10.45;3.50;;;;;;;;;;7392083;19;20094;-55
2021/08/30 00:11:26;;;;;;;6.45;3.08;;;;;;;;;;7393238;19;20026;-55
2021/08/30 00:13:53;;;;;;;8.48;3.80;;;;;;;;;;7391589;19;20011;-57
2021/08/30 00:16:21;;;;;;;9.25;3.97;;;;;;;;;;7395864;19;20031;-57
2021/08/30 00:18:48;;;;;;;7.35;3.35;;;;;;;;;;7392568;19;20007;-57
2021/08/30 00:21:17;;;;;;;5.28;3.25;;;;;;;;;;7392814;19;20608;-55
2021/08/30 00:23:44;;;;;;;6.53;3.15;;;;;;;;;;7392865;19;20011;-54
2021/08/30 00:26:11;;;;;;;7.10;2.97;;;;;;;;;;7392839;19;20028;-55
2021/08/30 00:28:40;;;;;;;7.47;3.85;;;;;;;;;;7391339;19;20202;-56
2021/08/30 00:31:07;;;;;;;6.72;3.10;;;;;;;;;;7390560;19;20014;-58
2021/08/30 00:33:35;;;;;;;6.55;2.90;;;;;;;;;;7392323;19;20018;-56
2021/08/30 00:36:06;;;;;;;7.20;3.33;;;;;;;;;;7391989;19;20010;-57
2021/08/30 00:38:34;;;;;;;6.55;3.40;;;;;;;;;;7392823;19;20014;-56
2021/08/30 00:41:03;;;;;;;5.85;3.28;;;;;;;;;;7393613;19;20015;-52
2021/08/30 00:43:30;;;;;;;6.13;3.35;;;;;;;;;;7389543;19;20010;-56
2021/08/30 00:46:00;;;;;;;6.65;3.70;;;;;;;;;;7392491;19;20015;-54
2021/08/30 00:48:28;;;;;;;14.90;5.90;;;;;;;;;;7391833;19;20766;-57
2021/08/30 00:50:56;;;;;;;6.88;3.50;;;;;;;;;;7389094;19;20027;-56
2021/08/30 00:53:23;;;;;;;5.80;3.28;;;;;;;;;;7391906;19;20449;-55
2021/08/30 00:55:51;;;;;;;10.98;4.70;;;;;;;;;;7386947;19;20014;-57
2021/08/30 00:58:18;;;;;;;8.82;4.13;;;;;;;;;;7392443;19;20541;-57
2021/08/30 01:00:46;;;;;;;8.68;3.53;;;;;;;;;;7391909;19;20029;-54
2021/08/30 01:03:14;;;;;;;5.13;3.28;;;;;;;;;;7389387;19;20026;-59
2021/08/30 01:05:49;;;;;;;5.72;3.90;;;;;;;;;;7393841;19;20035;-55
2021/08/30 01:08:37;;;;;;;8.60;3.75;;;;;;;;;;7389407;19;20010;-56
2021/08/30 01:11:14;;;;;;;9.18;4.20;;;;;;;;;;7390026;19;20479;-57
2021/08/30 01:13:59;;;;;;;8.35;5.03;;;;;;;;;;7390327;19;20011;-58
2021/08/30 01:16:28;;;;;;;6.63;3.95;;;;;;;;;;7392236;19;20003;-54
2021/08/30 01:18:59;;;;;;;8.75;4.13;;;;;;;;;;7389924;19;20039;-54
2021/08/30 01:21:38;;;;;;;10.30;4.07;;;;;;;;;;7390790;19;20028;-58
2021/08/30 01:24:09;;;;;;;6.03;3.22;;;;;;;;;;7390845;19;20022;-53
2021/08/30 01:26:51;;;;;;;8.57;3.38;;;;;;;;;;7391431;19;20007;-56
2021/08/30 01:29:30;;;;;;;7.22;3.78;;;;;;;;;;7389643;19;20497;-54
2021/08/30 01:32:19;;;;;;;5.88;3.70;;;;;;;;;;7389360;19;20078;-54
2021/08/30 01:34:47;;;;;;;15.30;3.38;;;;;;;;;;7392328;19;20014;-57
2021/08/30 01:37:14;;;;;;;15.18;3.22;;;;;;;;;;7389655;19;20031;-57
2021/08/30 01:39:44;;;;;;;5.65;2.90;;;;;;;;;;7388538;19;20014;-57
2021/08/30 01:42:12;;;;;;;6.15;3.22;;;;;;;;;;7391441;19;20010;-57
2021/08/30 01:44:39;;;;;;;7.50;3.00;;;;;;;;;;7389248;19;20024;-57
2021/08/30 01:47:07;;;;;;;9.68;3.63;;;;;;;;;;7391407;19;20018;-54
2021/08/30 01:49:35;;;;;;;10.25;2.60;;;;;;;;;;7389826;19;20018;-55
2021/08/30 01:52:07;;;;;;;7.22;3.25;;;;;;;;;;7390727;19;20186;-54
2021/08/30 01:54:35;;;;;;;7.18;3.75;;;;;;;;;;7389451;19;20017;-56
2021/08/30 01:57:03;;;;;;;4.63;2.67;;;;;;;;;;7387616;19;20006;-55
2021/08/30 02:02:17;;;;;;;7.32;2.92;;;;;;;;;;7389113;19;20015;-56
2021/08/30 02:04:44;;;;;;;4.70;2.72;;;;;;;;;;7393133;19;20073;-56
2021/08/30 02:07:12;;;;;;;4.72;3.10;;;;;;;;;;7388637;19;20478;-58
2021/08/30 02:09:39;;;;;;;6.65;3.03;;;;;;;;;;7389115;19;20086;-56
2021/08/30 02:12:07;;;;;;;5.50;2.95;;;;;;;;;;7389598;19;20381;-56
2021/08/30 02:14:35;;;;;;;94.72;46.95;;;;;;;;;;7389861;19;20076;-54
2021/08/30 02:17:08;;;;;;;84.03;35.50;;;;;;;;;;7385848;19;20011;-54
2021/08/30 02:19:54;;;;;;;33.33;12.45;;;;;;;;;;7389872;19;20024;-55
2021/08/30 02:22:29;;;;;;;26.33;9.40;;;;;;;;;;7385834;19;20082;-47
2021/08/30 02:25:04;;;;;;;21.75;7.40;;;;;;;;;;7388155;19;20027;-57
2021/08/30 02:27:44;;;;;;;20.23;5.50;;;;;;;;;;7386264;19;20018;-55
2021/08/30 02:30:19;;;;;;;9.48;3.72;;;;;;;;;;7387698;19;20010;-56
2021/08/30 02:32:50;;;;;;;9.27;3.70;;;;;;;;;;7388839;19;20014;-57
2021/08/30 02:35:22;;;;;;;10.20;3.22;;;;;;;;;;7388815;19;20017;-56
2021/08/30 02:37:54;;;;;;;7.65;3.28;;;;;;;;;;7387002;19;20050;-53
2021/08/30 02:40:24;;;;;;;6.15;2.80;;;;;;;;;;7389063;19;20006;-54
2021/08/30 02:42:52;;;;;;;12.70;5.18;;;;;;;;;;7389321;19;20021;-57
2021/08/30 02:45:21;;;;;;;9.88;5.38;;;;;;;;;;7388640;19;20018;-56
2021/08/30 02:47:51;;;;;;;9.65;4.80;;;;;;;;;;7388351;19;20003;-54
2021/08/30 02:50:19;;;;;;;11.13;4.68;;;;;;;;;;7389576;19;20010;-58
2021/08/30 02:52:48;;;;;;;9.95;4.38;;;;;;;;;;7391322;19;20011;-53
2021/08/30 02:55:16;;;;;;;8.23;3.92;;;;;;;;;;7388628;19;20014;-58
2021/08/30 02:57:49;;;;;;;10.15;4.53;;;;;;;;;;7387039;19;20080;-59
2021/08/30 03:00:18;;;;;;;7.32;3.25;;;;;;;;;;7388747;19;20070;-57
2021/08/30 03:02:47;;;;;;;8.68;4.10;;;;;;;;;;7386698;19;20013;-51
2021/08/30 03:05:15;;;;;;;9.60;3.30;;;;;;;;;;7387117;19;20015;-53
2021/08/30 03:07:43;;;;;;;6.47;3.35;;;;;;;;;;7387534;19;20570;-53
2021/08/30 03:10:11;;;;;;;6.88;3.40;;;;;;;;;;7388818;19;20043;-56
2021/08/30 03:12:43;;;;;;;6.55;3.40;;;;;;;;;;7387966;19;20018;-54
2021/08/30 03:15:17;;;;;;;5.00;2.60;;;;;;;;;;7386240;19;20010;-57
2021/08/30 03:17:45;;;;;;;20.13;9.07;;;;;;;;;;7386091;19;20010;-52
2021/08/30 03:20:19;;;;;;;9.43;4.43;;;;;;;;;;7391703;19;20028;-55
2021/08/30 03:22:51;;;;;;;5.93;3.22;;;;;;;;;;7392295;19;20029;-56
2021/08/30 03:25:26;;;;;;;6.80;2.90;;;;;;;;;;7394317;19;20018;-58
2021/08/30 03:27:55;;;;;;;5.32;2.50;;;;;;;;;;7392934;19;20023;-57
2021/08/30 03:30:23;;;;;;;5.32;3.03;;;;;;;;;;7393256;19;20026;-57
2021/08/30 03:32:52;;;;;;;13.13;4.22;;;;;;;;;;7391080;19;20035;-52
2021/08/30 03:35:22;;;;;;;7.65;3.55;;;;;;;;;;7396077;19;20018;-52
2021/08/30 03:37:50;;;;;;;7.63;3.22;;;;;;;;;;7392868;19;20037;-55
2021/08/30 03:40:19;;;;;;;7.95;2.90;;;;;;;;;;7394399;19;20010;-54
2021/08/30 03:42:48;;;;;;;5.93;2.70;;;;;;;;;;7392497;19;20002;-56
2021/08/30 03:45:16;;;;;;;5.63;3.03;;;;;;;;;;7394721;19;20044;-54
2021/08/30 03:47:44;;;;;;;6.88;3.15;;;;;;;;;;7394191;19;20022;-55
2021/08/30 03:50:13;;;;;;;9.38;3.95;;;;;;;;;;7393906;19;20014;-64
2021/08/30 03:52:41;;;;;;;8.50;3.80;;;;;;;;;;7394833;19;20023;-55
2021/08/30 03:55:10;;;;;;;6.80;3.83;;;;;;;;;;7394311;19;20376;-59
2021/08/30 03:57:38;;;;;;;11.00;3.85;;;;;;;;;;7391297;19;20017;-58
2021/08/30 04:00:08;;;;;;;6.80;3.60;;;;;;;;;;7393559;19;20049;-58
2021/08/30 04:02:39;;;;;;;7.35;4.03;;;;;;;;;;7392198;19;20015;-55
2021/08/30 04:05:09;;;;;;;5.80;3.28;;;;;;;;;;7394250;19;20010;-53
2021/08/30 04:07:37;;;;;;;5.30;3.40;;;;;;;;;;7393377;19;20014;-53
2021/08/30 04:10:05;;;;;;;4.93;2.83;;;;;;;;;;7390249;19;20017;-58
2021/08/30 04:12:33;;;;;;;10.00;3.10;;;;;;;;;;7393847;19;20006;-59
2021/08/30 04:15:01;;;;;;;9.52;3.83;;;;;;;;;;7392932;19;20019;-58
2021/08/30 04:17:29;;;;;;;8.40;4.85;;;;;;;;;;7391792;19;20029;-58
2021/08/30 04:19:56;;;;;;;11.82;6.30;;;;;;;;;;7393143;19;20014;-59
2021/08/30 04:22:23;;;;;;;10.93;4.78;;;;;;;;;;7391252;19;20011;-58
2021/08/30 04:24:51;;;;;;;7.05;3.50;;;;;;;;;;7392733;19;20021;-59
2021/08/30 04:27:18;;;;;;;5.47;3.22;;;;;;;;;;7393143;19;20017;-57
2021/08/30 04:29:46;;;;;;;9.48;3.30;;;;;;;;;;7392245;19;20014;-58
2021/08/30 04:32:13;;;;;;;8.10;3.72;;;;;;;;;;7392457;19;20358;-54
2021/08/30 04:34:42;;;;;;;8.82;3.13;;;;;;;;;;7393103;19;20010;-58
2021/08/30 04:37:09;;;;;;;9.88;3.67;;;;;;;;;;7391350;19;20031;-57
2021/08/30 04:39:37;;;;;;;7.15;3.90;;;;;;;;;;7393008;19;20014;-59
2021/08/30 04:42:05;;;;;;;7.20;2.85;;;;;;;;;;7390094;19;20014;-58
2021/08/30 04:44:33;;;;;;;8.23;3.47;;;;;;;;;;7390423;19;20035;-58
2021/08/30 04:47:01;;;;;;;12.63;4.45;;;;;;;;;;7390433;19;20030;-58
2021/08/30 04:49:29;;;;;;;9.45;3.58;;;;;;;;;;7390692;19;20025;-52
2021/08/30 04:51:56;;;;;;;6.93;3.22;;;;;;;;;;7394090;19;20026;-58
2021/08/30 04:54:24;;;;;;;8.68;3.90;;;;;;;;;;7390693;19;20015;-58
2021/08/30 04:56:51;;;;;;;6.47;3.22;;;;;;;;;;7389724;19;20015;-59
2021/08/30 04:59:19;;;;;;;9.40;4.30;;;;;;;;;;7392359;19;20010;-58
2021/08/30 05:01:46;;;;;;;11.18;4.43;;;;;;;;;;7391727;19;20015;-57
2021/08/30 05:04:14;;;;;;;9.32;3.92;;;;;;;;;;7388737;19;20050;-57
2021/08/30 05:06:41;;;;;;;16.13;4.53;;;;;;;;;;7393779;19;20014;-57
2021/08/30 05:09:10;;;;;;;7.45;5.00;;;;;;;;;;7391360;19;20035;-56
2021/08/30 05:11:37;;;;;;;26.45;12.40;;;;;;;;;;7392375;19;20066;-52
2021/08/30 05:14:05;;;;;;;54.20;24.80;;;;;;;;;;7391884;19;20025;-58
2021/08/30 05:16:32;;;;;;;25.85;11.55;;;;;;;;;;7390136;19;20014;-57
2021/08/30 05:19:00;;;;;;;14.40;7.95;;;;;;;;;;7392450;19;20804;-58
2021/08/30 05:21:27;;;;;;;10.35;5.65;;;;;;;;;;7388099;19;20036;-55
2021/08/30 05:23:54;;;;;;;11.10;5.18;;;;;;;;;;7391562;19;20517;-52
2021/08/30 05:26:22;;;;;;;8.43;5.13;;;;;;;;;;7391036;19;20010;-52
2021/08/30 05:28:49;;;;;;;11.73;5.35;;;;;;;;;;7391283;19;20026;-54
2021/08/30 05:31:17;;;;;;;9.00;4.68;;;;;;;;;;7391449;19;20014;-53
2021/08/30 05:33:44;;;;;;;8.13;4.90;;;;;;;;;;7389229;19;20090;-49
2021/08/30 05:36:11;;;;;;;8.93;4.05;;;;;;;;;;7391493;19;20014;-54
2021/08/30 05:38:39;;;;;;;7.95;3.97;;;;;;;;;;7389037;19;20715;-56
2021/08/30 05:41:06;;;;;;;7.22;3.55;;;;;;;;;;7390255;19;20012;-55
2021/08/30 05:43:34;;;;;;;8.65;3.13;;;;;;;;;;7388907;19;20014;-50
2021/08/30 05:46:01;;;;;;;8.35;3.45;;;;;;;;;;7389076;19;20352;-54
2021/08/30 05:48:29;;;;;;;8.30;3.30;;;;;;;;;;7391470;19;20006;-57
2021/08/30 05:50:56;;;;;;;8.57;3.25;;;;;;;;;;7388835;19;20010;-54
2021/08/30 05:53:23;;;;;;;5.70;2.83;;;;;;;;;;7388988;19;20527;-54
2021/08/30 05:55:51;;;;;;;60.88;26.02;;;;;;;;;;7390832;19;20014;-54
2021/08/30 05:58:18;;;;;;;25.83;12.68;;;;;;;;;;7388449;19;20015;-56
2021/08/30 06:00:46;;;;;;;10.85;5.72;;;;;;;;;;7387718;19;20054;-57
2021/08/30 06:03:13;;;;;;;8.10;4.07;;;;;;;;;;7388101;19;20085;-57
2021/08/30 06:05:41;;;;;;;9.65;2.92;;;;;;;;;;7390182;19;20534;-55
2021/08/30 06:08:08;;;;;;;6.90;2.80;;;;;;;;;;7389966;19;20485;-54
2021/08/30 06:10:36;;;;;;;7.00;2.78;;;;;;;;;;7388494;19;20033;-57
2021/08/30 06:13:03;;;;;;;5.72;2.72;;;;;;;;;;7388884;19;20435;-52
2021/08/30 06:15:31;;;;;;;7.60;2.63;;;;;;;;;;7389540;19;20014;-54
2021/08/30 06:17:58;;;;;;;6.55;2.50;;;;;;;;;;7388307;19;20133;-54
2021/08/30 06:20:26;;;;;;;6.35;2.70;;;;;;;;;;7385932;19;20015;-54
2021/08/30 06:22:54;;;;;;;8.93;3.08;;;;;;;;;;7387267;19;20086;-56
2021/08/30 06:25:22;;;;;;;12.25;5.53;;;;;;;;;;7389097;19;20046;-53
2021/08/30 06:27:57;;;;;;;26.13;10.90;;;;;;;;;;7387624;19;20046;-56
2021/08/30 06:30:24;;;;;;;10.02;4.10;;;;;;;;;;7389404;19;20002;-53
2021/08/30 06:32:52;;;;;;;7.68;2.90;;;;;;;;;;7388261;19;20027;-54
2021/08/30 06:35:21;;;;;;;4.95;2.30;;;;;;;;;;7389239;19;20027;-53
2021/08/30 06:37:48;;;;;;;6.88;2.53;;;;;;;;;;7389507;19;20017;-55
2021/08/30 06:40:17;;;;;;;4.28;2.35;;;;;;;;;;7389369;19;20011;-54
2021/08/30 06:42:45;;;;;;;5.88;2.40;;;;;;;;;;7389181;19;20475;-53
2021/08/30 06:45:12;;;;;;;5.30;2.60;;;;;;;;;;7388645;19;20070;-56
2021/08/30 06:47:41;;;;;;;5.45;2.38;;;;;;;;;;7388035;19;20015;-57
2021/08/30 06:50:09;;;;;;;5.50;2.10;;;;;;;;;;7389360;19;20011;-52
2021/08/30 06:52:37;;;;;;;5.30;2.30;;;;;;;;;;7390453;19;20019;-55
2021/08/30 06:55:05;;;;;;;6.55;2.92;;;;;;;;;;7392737;19;20015;-57
2021/08/30 06:57:35;;;;;;;5.65;2.65;;;;;;;;;;7395506;19;20021;-54
2021/08/30 07:00:07;;;;;;;5.20;2.33;;;;;;;;;;7396496;19;20035;-57
2021/08/30 07:02:35;;;;;;;4.30;2.53;;;;;;;;;;7396668;19;20023;-57
2021/08/30 07:05:03;;;;;;;4.43;2.13;;;;;;;;;;7393587;19;20027;-57
2021/08/30 07:07:31;;;;;;;4.82;2.10;;;;;;;;;;7392099;19;20538;-57
2021/08/30 07:10:00;;;;;;;5.07;2.60;;;;;;;;;;7394722;19;20011;-55
2021/08/30 07:12:27;;;;;;;4.80;2.15;;;;;;;;;;7394630;19;20007;-55
2021/08/30 07:14:55;;;;;;;4.40;2.13;;;;;;;;;;7395560;19;20014;-58
2021/08/30 07:17:22;;;;;;;5.50;2.15;;;;;;;;;;7393897;19;20011;-58
2021/08/30 07:19:51;;;;;;;4.65;2.20;;;;;;;;;;7392053;19;20018;-56
2021/08/30 07:22:19;;;;;;;5.72;2.30;;;;;;;;;;7394202;19;20018;-56
2021/08/30 07:24:47;;;;;;;4.75;2.22;;;;;;;;;;7394318;19;20010;-57
2021/08/30 07:27:14;;;;;;;6.47;2.05;;;;;;;;;;7395354;19;20022;-57
2021/08/30 07:29:42;;;;;;;4.30;2.30;;;;;;;;;;7391675;19;20006;-57
2021/08/30 07:32:09;;;;;;;5.07;2.20;;;;;;;;;;7395649;19;20100;-55
2021/08/30 07:34:37;;;;;;;4.43;2.05;;;;;;;;;;7395103;19;20019;-52
2021/08/30 07:37:05;;;;;;;31.25;12.68;;;;;;;;;;7393723;19;20020;-51
2021/08/30 07:39:32;;;;;;;17.77;7.25;;;;;;;;;;7392404;19;20011;-57
2021/08/30 07:42:00;;;;;;;5.63;2.72;;;;;;;;;;7393421;19;20518;-52
2021/08/30 07:44:28;;;;;;;4.15;2.20;;;;;;;;;;7393791;19;20082;-51
2021/08/30 07:46:57;;;;;;;8.55;1.88;;;;;;;;;;7393991;19;20010;-54
2021/08/30 07:49:24;;;;;;;4.57;2.30;;;;;;;;;;7391804;19;20007;-57
2021/08/30 07:51:52;;;;;;;4.30;2.17;;;;;;;;;;7396063;19;20010;-53
2021/08/30 07:54:19;;;;;;;3.67;2.10;;;;;;;;;;7395169;19;20026;-53
2021/08/30 07:56:47;;;;;;;3.55;1.77;;;;;;;;;;7394937;19;20024;-54
2021/08/30 07:59:14;;;;;;;5.47;2.20;;;;;;;;;;7390772;19;20025;-55
2021/08/30 08:01:42;;;;;;;4.78;2.30;;;;;;;;;;7393288;19;20388;-51
2021/08/30 08:04:10;;;;;;;6.15;2.45;;;;;;;;;;7394267;19;20078;-54
2021/08/30 08:06:37;;;;;;;5.10;2.10;;;;;;;;;;7392473;19;20046;-52
2021/08/30 08:09:05;;;;;;;7.30;2.03;;;;;;;;;;7393164;19;20006;-57
2021/08/30 08:11:33;;;;;;;6.88;2.55;;;;;;;;;;7393306;19;20040;-54
2021/08/30 08:14:00;;;;;;;4.25;2.25;;;;;;;;;;7393980;19;20693;-56
2021/08/30 08:16:28;;;;;;;4.10;1.98;;;;;;;;;;7395858;19;20019;-52
2021/08/30 08:18:55;;;;;;;6.35;2.42;;;;;;;;;;7393288;19;20010;-56
2021/08/30 08:21:24;;;;;;;8.23;2.20;;;;;;;;;;7391414;19;20022;-54
2021/08/30 08:23:51;;;;;;;4.35;2.10;;;;;;;;;;7392720;19;20044;-56
2021/08/30 08:26:19;;;;;;;5.25;1.98;;;;;;;;;;7391274;19;21924;-53
2021/08/30 08:28:46;;;;;;;3.53;1.80;;;;;;;;;;7392454;19;20017;-57
2021/08/30 08:31:14;;;;;;;6.28;2.38;;;;;;;;;;7392088;19;20018;-53
2021/08/30 08:33:44;;;;;;;5.78;1.85;;;;;;;;;;7393007;19;20042;-58
2021/08/30 08:36:12;;;;;;;7.18;2.50;;;;;;;;;;7392454;19;20046;-54
2021/08/30 08:38:39;;;;;;;7.55;2.63;;;;;;;;;;7392918;19;20094;-56
2021/08/30 08:41:07;;;;;;;4.95;2.30;;;;;;;;;;7393017;19;20024;-53
2021/08/30 08:43:35;;;;;;;4.80;2.10;;;;;;;;;;7390864;19;20018;-55
2021/08/30 08:46:03;;;;;;;4.35;1.85;;;;;;;;;;7392848;19;20014;-51
2021/08/30 08:48:30;;;;;;;32.10;14.10;;;;;;;;;;7391965;19;20039;-50
2021/08/30 08:50:58;;;;;;;21.55;7.57;;;;;;;;;;7391166;19;20006;-55
2021/08/30 08:53:26;;;;;;;4.80;2.97;;;;;;;;;;7391854;19;20013;-53
2021/08/30 08:55:53;;;;;;;5.28;2.50;;;;;;;;;;7391706;19;20006;-59
2021/08/30 08:58:21;;;;;;;4.97;2.30;;;;;;;;;;7391135;19;20017;-53
2021/08/30 09:01:01;;;;;;;6.30;2.50;;;;;;;;;;7391917;19;20011;-56
2021/08/30 09:03:29;;;;;;;3.05;1.70;;;;;;;;;;7391019;19;20013;-55
2021/08/30 09:06:01;;;;;;;5.40;2.67;;;;;;;;;;7391416;19;20470;-56
2021/08/30 09:08:43;;;;;;;3.88;1.90;;;;;;;;;;7393729;19;20006;-57
2021/08/30 09:11:19;;;;;;;8.40;2.47;;;;;;;;;;7391693;19;20019;-57
2021/08/30 09:13:55;;;;;;;4.85;2.20;;;;;;;;;;7391243;19;20517;-56
2021/08/30 09:16:25;;;;;;;5.20;2.03;;;;;;;;;;7391187;19;20015;-54
2021/08/30 09:19:07;;;;;;;4.63;1.98;;;;;;;;;;7390402;19;20003;-51
2021/08/30 09:21:42;;;;;;;8.73;3.25;;;;;;;;;;7390352;19;20078;-57
2021/08/30 09:24:12;;;;;;;12.13;2.70;;;;;;;;;;7391146;19;20034;-52
2021/08/30 09:26:51;;;;;;;5.15;2.20;;;;;;;;;;7390938;19;20006;-51
2021/08/30 09:29:24;;;;;;;;;;;;;;;;;;7390330;19;20487;-50
2021/08/30 09:32:09;;;;;;;4.68;1.98;;;;;;;;;;7391776;19;19933;-55
2021/08/30 09:34:45;;;;;;;4.72;2.92;;;;;;;;;;7390242;19;20022;-56
2021/08/30 09:37:22;;;;;;;4.40;2.15;;;;;;;;;;7391281;19;20025;-51
2021/08/30 09:40:01;;;;;;;3.60;1.73;;;;;;;;;;7388019;19;20013;-53
2021/08/30 09:42:29;;;;;;;4.03;2.08;;;;;;;;;;7390256;19;20025;-55
2021/08/30 09:45:12;;;;;;;6.22;2.40;;;;;;;;;;7390570;19;20040;-55
2021/08/30 09:47:57;;;;;;;3.78;2.10;;;;;;;;;;7389683;19;20022;-57
2021/08/30 09:50:37;;;;;;;4.45;2.13;;;;;;;;;;7391108;19;20017;-53
2021/08/30 09:53:05;;;;;;;3.80;2.17;;;;;;;;;;7395158;19;20017;-56
2021/08/30 09:55:35;;;;;;;8.43;2.40;;;;;;;;;;7390443;19;20013;-55
2021/08/30 09:58:05;;;;;;;5.75;2.50;;;;;;;;;;7390734;19;20029;-55
2021/08/30 10:00:34;;;;;;;7.50;3.42;;;;;;;;;;7388809;19;20021;-55
2021/08/30 10:03:03;;;;;;;4.55;2.53;;;;;;;;;;7389476;19;20014;-53
2021/08/30 10:05:34;;;;;;;6.25;2.67;;;;;;;;;;7388994;19;20086;-52
2021/08/30 10:08:01;;;;;;;5.13;2.33;;;;;;;;;;7388944;19;20406;-55
2021/08/30 10:10:30;;;;;;;7.28;2.63;;;;;;;;;;7389403;19;20018;-52
2021/08/30 10:13:00;;;;;;;6.82;2.28;;;;;;;;;;7388414;19;20044;-53
2021/08/30 10:15:29;;;;;;;5.95;2.90;;;;;;;;;;7390622;19;20006;-58
2021/08/30 10:17:57;;;;;;;6.07;2.30;;;;;;;;;;7390091;19;20018;-56
2021/08/30 10:20:33;;;;;;;3.63;1.88;;;;;;;;;;7388144;19;20014;-54
2021/08/30 10:23:05;;;;;;;4.15;2.05;;;;;;;;;;7385775;19;20332;-55
2021/08/30 10:25:34;;;;;;;6.40;2.30;;;;;;;;;;7389772;19;20078;-57
2021/08/30 10:28:05;;;;;;;4.70;2.42;;;;;;;;;;7388501;19;20012;-51
2021/08/30 10:30:37;;;;;;;4.53;1.92;;;;;;;;;;7403043;19;20006;-56
2021/08/30 10:33:08;;;;;;;4.68;2.10;;;;;;;;;;7404058;19;20011;-54
2021/08/30 10:35:39;;;;;;;7.00;2.00;;;;;;;;;;7402708;19;20511;-52
2021/08/30 10:38:15;;;;;;;4.60;2.45;;;;;;;;;;7404530;19;20022;-53
2021/08/30 10:40:47;;;;;;;6.18;2.60;;;;;;;;;;7403101;19;20014;-53
2021/08/30 10:43:15;;;;;;;5.10;2.30;;;;;;;;;;7401080;19;20018;-53
2021/08/30 10:45:58;;;;;;;4.68;2.25;;;;;;;;;;7402979;19;20070;-53
2021/08/30 10:48:38;;;;;;;3.45;2.10;;;;;;;;;;7402113;19;20365;-54
2021/08/30 10:51:20;;;;;;;4.60;2.20;;;;;;;;;;7403436;19;20031;-56
2021/08/30 10:54:17;;;;;;;5.87;2.37;;;;;;;;;;7402846;19;20018;-52
2021/08/30 10:57:15;;;;;;;3.78;2.33;;;;;;;;;;7403106;19;20035;-54
2021/08/30 10:59:43;;;;;;;5.80;2.30;;;;;;;;;;7399206;19;20090;-52
2021/08/30 11:02:11;;;;;;;5.03;2.35;;;;;;;;;;7401870;19;20007;-55
2021/08/30 11:04:41;;;;;;;4.32;1.73;;;;;;;;;;7403882;19;20145;-52
2021/08/30 11:07:09;;;;;;;4.38;2.35;;;;;;;;;;7402272;19;20015;-54
2021/08/30 11:09:45;;;;;;;5.45;2.35;;;;;;;;;;7403104;19;20014;-51
2021/08/30 11:12:14;;;;;;;4.63;2.35;;;;;;;;;;7400035;19;20015;-53
2021/08/30 11:14:42;;;;;;;3.90;2.00;;;;;;;;;;7402329;19;20493;-55
2021/08/30 11:17:12;;;;;;;5.55;2.55;;;;;;;;;;7401701;19;20034;-53
2021/08/30 11:19:40;;;;;;;6.40;2.20;;;;;;;;;;7400994;19;20034;-50
2021/08/30 11:22:09;;;;;;;4.57;2.42;;;;;;;;;;7400123;19;20033;-54
2021/08/30 11:24:43;;;;;;;3.70;1.90;;;;;;;;;;7402836;19;20099;-52
2021/08/30 11:27:16;;;;;;;3.70;1.80;;;;;;;;;;7401490;19;20014;-53
2021/08/30 11:29:45;;;;;;;;;;;;;;;;;;7402897;19;20011;-52
2021/08/30 11:32:14;;;;;;;6.72;2.80;;;;;;;;;;7402221;19;19986;-55
2021/08/30 11:34:42;;;;;;;5.10;2.33;;;;;;;;;;7401834;19;20011;-55
2021/08/30 11:37:13;;;;;;;3.67;1.90;;;;;;;;;;7403123;19;20107;-53
2021/08/30 11:39:46;;;;;;;5.55;1.90;;;;;;;;;;7397833;19;20019;-50
2021/08/30 11:42:27;;;;;;;4.80;2.30;;;;;;;;;;7394234;19;20010;-54
2021/08/30 11:44:55;;;;;;;5.05;2.28;;;;;;;;;;7394227;19;20022;-53
2021/08/30 11:47:23;;;;;;;4.07;1.90;;;;;;;;;;7395007;19;20018;-52
2021/08/30 11:49:56;;;;;;;4.63;2.25;;;;;;;;;;7393004;19;20535;-53
2021/08/30 11:52:25;;;;;;;;;;;;;;;;;;7397898;19;20014;-50
2021/08/30 11:55:05;;;;;;;4.88;2.13;;;;;;;;;;7393074;19;19940;-53
2021/08/30 11:57:44;;;;;;;4.70;2.05;;;;;;;;;;7394082;19;20018;-51
2021/08/30 12:00:16;;;;;;;44.95;23.13;;;;;;;;;;7392228;19;20011;-50
2021/08/30 12:02:43;;;;;;;21.00;10.07;;;;;;;;;;7393842;19;20018;-54
2021/08/30 12:05:11;;;;;;;4.90;2.00;;;;;;;;;;7392888;19;20010;-52
2021/08/30 12:07:39;;;;;;;4.68;1.92;;;;;;;;;;7393914;19;20083;-54
2021/08/30 12:10:12;;;;;;;3.78;1.65;;;;;;;;;;7393754;19;20015;-51
2021/08/30 12:13:44;;;;;;;6.00;2.05;;;;;;;;;;7393655;19;20024;-51
2021/08/30 12:15:46;;;;;;;4.78;1.80;;;;;;;;;;7394001;19;20021;-54
2021/08/30 12:18:18;;;;;;;7.50;2.28;;;;;;;;;;7392959;19;20039;-53
2021/08/30 12:20:47;;;;;;;3.53;2.15;;;;;;;;;;7389232;19;20011;-51
2021/08/30 12:23:19;;;;;;;3.45;1.70;;;;;;;;;;7392914;19;20015;-51
2021/08/30 12:25:48;;;;;;;3.97;2.05;;;;;;;;;;7393730;19;20021;-50
2021/08/30 12:28:16;;;;;;;256.15;161.43;;;;;;;;;;7389881;19;20015;-51
2021/08/30 12:30:47;;;;;;;40.13;22.25;;;;;;;;;;7393052;19;20014;-51
2021/08/30 12:33:17;;;;;;;7.40;4.18;;;;;;;;;;7392638;19;20011;-48
2021/08/30 12:35:49;;;;;;;5.60;2.50;;;;;;;;;;7392410;19;20031;-53
2021/08/30 12:38:19;;;;;;;3.85;1.83;;;;;;;;;;7392591;19;20506;-55
2021/08/30 12:40:49;;;;;;;5.20;2.10;;;;;;;;;;7390722;19;20027;-54
2021/08/30 12:43:17;;;;;;;4.85;2.55;;;;;;;;;;7393414;19;20014;-53
2021/08/30 12:45:46;;;;;;;6.30;2.80;;;;;;;;;;7391280;19;20027;-50
2021/08/30 12:48:14;;;;;;;10.45;6.53;;;;;;;;;;7393308;19;20457;-54
2021/08/30 12:50:43;;;;;;;5.60;2.80;;;;;;;;;;7392452;19;20031;-48
2021/08/30 12:53:11;;;;;;;48.35;18.85;;;;;;;;;;7392417;19;20587;-50
2021/08/30 12:55:39;;;;;;;27.10;10.77;;;;;;;;;;7390482;19;20495;-49
2021/08/30 12:58:09;;;;;;;5.40;3.05;;;;;;;;;;7392293;19;20015;-55
2021/08/30 13:00:38;;;;;;;6.93;2.45;;;;;;;;;;7388750;19;20010;-51
2021/08/30 13:03:07;;;;;;;5.10;2.40;;;;;;;;;;7391693;19;20021;-52
2021/08/30 13:05:41;;;;;;;4.65;1.92;;;;;;;;;;7391818;19;20010;-51
2021/08/30 13:08:15;;;;;;;4.75;2.17;;;;;;;;;;7395291;19;20514;-52
2021/08/30 13:10:45;;;;;;;4.80;2.13;;;;;;;;;;7390441;19;20024;-52
2021/08/30 13:13:14;;;;;;;3.28;1.70;;;;;;;;;;7392043;19;20024;-55
2021/08/30 13:15:46;;;;;;;4.45;2.05;;;;;;;;;;7391169;19;20031;-52
2021/08/30 13:18:17;;;;;;;4.88;2.00;;;;;;;;;;7392499;19;20011;-53
2021/08/30 13:20:50;;;;;;;3.33;1.50;;;;;;;;;;7391716;19;20014;-49
2021/08/30 13:23:18;;;;;;;5.07;2.00;;;;;;;;;;7391555;19;20357;-52
2021/08/30 13:25:46;;;;;;;7.15;2.05;;;;;;;;;;7390178;19;20006;-52
2021/08/30 13:28:14;;;;;;;3.53;1.95;;;;;;;;;;7391638;19;20145;-53
2021/08/30 13:30:42;;;;;;;4.22;1.80;;;;;;;;;;7391401;19;20620;-52
2021/08/30 13:33:10;;;;;;;3.38;1.75;;;;;;;;;;7390442;19;20017;-54
2021/08/30 13:35:37;;;;;;;4.60;1.88;;;;;;;;;;7391233;19;20015;-51
2021/08/30 13:38:05;;;;;;;4.47;1.77;;;;;;;;;;7390772;19;20032;-52
2021/08/30 13:40:33;;;;;;;3.78;2.08;;;;;;;;;;7389900;19;20039;-49
2021/08/30 13:43:00;;;;;;;5.28;2.17;;;;;;;;;;7390002;19;20506;-53
2021/08/30 13:45:29;;;;;;;3.80;2.00;;;;;;;;;;7390962;19;20018;-46
2021/08/30 13:47:56;;;;;;;3.13;1.70;;;;;;;;;;7388778;19;20085;-51
2021/08/30 13:50:25;;;;;;;4.93;2.20;;;;;;;;;;7390798;19;20021;-53
2021/08/30 13:52:55;;;;;;;3.15;1.65;;;;;;;;;;7391894;19;20007;-52
2021/08/30 13:55:24;;;;;;;5.15;2.20;;;;;;;;;;7389633;19;20010;-51
2021/08/30 13:57:51;;;;;;;2.95;1.50;;;;;;;;;;7390900;19;20023;-55
2021/08/30 14:00:19;;;;;;;3.58;2.00;;;;;;;;;;7389089;19;20015;-51
2021/08/30 14:02:47;;;;;;;3.92;2.10;;;;;;;;;;7388255;19;20562;-54
2021/08/30 14:05:15;;;;;;;3.25;1.65;;;;;;;;;;7390565;19;20069;-47
2021/08/30 14:07:43;;;;;;;4.10;1.70;;;;;;;;;;7389965;19;20038;-54
2021/08/30 14:10:11;;;;;;;2.30;1.25;;;;;;;;;;7389776;19;20022;-52
2021/08/30 14:12:40;;;;;;;3.90;2.40;;;;;;;;;;7389717;19;20487;-55
2021/08/30 14:15:09;;;;;;;10.05;2.33;;;;;;;;;;7390590;19;20015;-53
2021/08/30 14:17:38;;;;;;;3.90;1.92;;;;;;;;;;7385455;19;20341;-54
2021/08/30 14:20:08;;;;;;;3.45;1.70;;;;;;;;;;7388586;19;20014;-53
2021/08/30 14:22:42;;;;;;;3.90;1.58;;;;;;;;;;7386793;19;20018;-54
2021/08/30 14:25:10;;;;;;;3.47;1.77;;;;;;;;;;7390017;19;20010;-48
2021/08/30 14:27:37;;;;;;;3.95;1.80;;;;;;;;;;7386820;19;20013;-52
2021/08/30 14:30:06;;;;;;;4.40;2.25;;;;;;;;;;7390010;19;20081;-54
2021/08/30 14:32:34;;;;;;;3.60;2.00;;;;;;;;;;7387212;19;20014;-54
2021/08/30 14:35:02;;;;;;;3.17;1.80;;;;;;;;;;7387629;19;20090;-53
2021/08/30 14:37:29;;;;;;;5.78;1.92;;;;;;;;;;7388088;19;20019;-55
2021/08/30 14:39:58;;;;;;;5.57;2.17;;;;;;;;;;7386697;19;20014;-51
2021/08/30 14:42:26;;;;;;;3.50;2.03;;;;;;;;;;7387264;19;20031;-51
2021/08/30 14:44:53;;;;;;;8.00;1.92;;;;;;;;;;7388748;19;20010;-52
2021/08/30 14:47:21;;;;;;;4.50;2.20;;;;;;;;;;7389386;19;20039;-50
2021/08/30 14:49:49;;;;;;;3.20;1.75;;;;;;;;;;7388308;19;20066;-50
2021/08/30 14:52:16;;;;;;;5.43;2.05;;;;;;;;;;7391367;19;20497;-47
2021/08/30 14:54:44;;;;;;;3.05;1.65;;;;;;;;;;7386810;19;20089;-51
2021/08/30 14:57:12;;;;;;;5.05;1.80;;;;;;;;;;7388828;19;20033;-50
2021/08/30 14:59:39;;;;;;;4.43;1.98;;;;;;;;;;7387574;19;20046;-53